.
WxDataArchive / Data Records for 2013-06-04
2013-06-03 June 2013 2013-06-05

Data Records for Tuesday, 04 June 2013

Time	Temp	Chill	HIndex	Humid	Dewpt	 Wind 	HiWind	WindDir	Rain 	Barom 
-----	----	-----	------	-----	-----	------	------	-------	-----	----- 
00:00	51.7	51.7	51.7	81	46.1	0	0	---	0.00	30.087 
00:05	51.6	51.6	51.6	81	46.0	0	0	---	0.00	30.087 
00:10	51.4	51.4	51.4	81	45.8	0	0	---	0.00	30.087 
00:15	51.3	51.3	51.3	81	45.7	0	0	---	0.00	30.082 
00:20	51.1	51.1	51.1	82	45.8	0	0	---	0.00	30.082 
00:25	51.0	51.0	51.0	83	46.0	0	0	---	0.00	30.082 
00:30	50.8	50.8	50.8	83	45.8	0	0	---	0.00	30.081 
00:35	50.8	50.8	50.8	83	45.8	0	0	---	0.00	30.081 
00:40	50.7	50.7	50.7	83	45.7	0	0	---	0.00	30.081 
00:45	50.7	50.7	50.7	84	46.0	0	0	---	0.00	30.086 
00:50	50.5	50.5	50.5	84	45.8	0	0	---	0.00	30.086 
00:55	50.4	50.4	50.4	84	45.7	0	0	---	0.00	30.086 
01:00	50.4	50.4	50.4	85	46.1	0	0	---	0.00	30.086 
01:05	50.2	50.2	50.2	85	45.9	0	0	---	0.00	30.086 
01:10	50.2	50.2	50.2	85	45.9	0	0	---	0.00	30.086 
01:15	50.1	50.1	50.1	86	46.1	0	0	---	0.00	30.087 
01:20	50.1	50.1	50.1	86	46.1	0	0	---	0.00	30.087 
01:25	50.1	50.1	50.1	86	46.1	0	0	---	0.00	30.087 
01:30	50.1	50.1	50.1	86	46.1	0	0	---	0.00	30.086 
01:35	50.2	50.2	50.2	86	46.2	0	0	---	0.00	30.086 
01:40	50.2	50.2	50.2	85	45.9	0	0	---	0.00	30.086 
01:45	50.2	50.2	50.2	85	45.9	0	0	---	0.00	30.086 
01:50	50.2	50.2	50.2	85	45.9	0	0	---	0.00	30.086 
01:55	50.2	50.2	50.2	84	45.6	0	0	---	0.00	30.086 
02:00	50.2	50.2	50.2	84	45.6	0	0	---	0.00	30.087 
02:05	50.2	50.2	50.2	84	45.6	0	0	---	0.00	30.087 
02:10	50.4	50.4	50.4	83	45.4	0	0	---	0.00	30.087 
02:15	50.8	50.8	50.8	82	45.5	0	0	---	0.00	30.087 
02:20	51.1	51.1	51.1	81	45.5	0	0	---	0.00	30.087 
02:25	51.3	51.3	51.3	81	45.7	0	0	---	0.00	30.087 
02:30	51.4	51.4	51.4	80	45.4	0	0	---	0.00	30.087 
02:35	51.4	51.4	51.4	80	45.4	0	0	---	0.00	30.087 
02:40	51.4	51.4	51.4	79	45.1	0	0	---	0.00	30.087 
02:45	51.6	51.6	51.6	79	45.3	0	0	---	0.00	30.091 
02:50	51.6	51.6	51.6	78	45.0	0	0	---	0.00	30.091 
02:55	51.7	51.7	51.7	78	45.1	0	0	---	0.00	30.091 
03:00	51.6	51.6	51.6	77	44.6	0	0	---	0.00	30.096 
03:05	51.6	51.6	51.6	77	44.6	0	0	---	0.00	30.096 
03:10	51.4	51.4	51.4	77	44.4	0	0	---	0.00	30.096 
03:15	51.3	51.3	51.3	77	44.3	0	0	---	0.00	30.098 
03:20	51.1	51.1	51.1	78	44.5	0	0	---	0.00	30.098 
03:25	51.0	51.0	51.0	78	44.4	0	0	---	0.00	30.098 
03:30	50.8	50.8	50.8	79	44.5	0	0	---	0.00	30.099 
03:35	50.5	50.5	50.5	79	44.2	0	0	---	0.00	30.099 
03:40	50.4	50.4	50.4	79	44.1	0	0	---	0.00	30.099 
03:45	50.1	50.1	50.1	80	44.2	0	0	---	0.00	30.098 
03:50	49.8	49.8	49.8	81	44.2	0	0	---	0.00	30.098 
03:55	49.6	49.6	49.6	81	44.0	0	0	---	0.00	30.098 
04:00	49.5	49.5	49.5	82	44.2	0	0	---	0.00	30.101 
04:05	49.4	49.4	49.4	82	44.1	0	0	---	0.00	30.101 
04:10	49.2	49.2	49.2	82	43.9	0	0	---	0.00	30.101 
04:15	48.9	48.9	48.9	83	44.0	0	0	---	0.00	30.098 
04:20	48.9	48.9	48.9	83	44.0	0	0	---	0.00	30.098 
04:25	48.8	48.8	48.8	84	44.2	0	0	---	0.00	30.098 
04:30	48.6	48.6	48.6	84	44.0	0	0	---	0.00	30.096 
04:35	48.5	48.5	48.5	84	43.9	0	0	---	0.00	30.096 
04:40	48.3	48.3	48.3	84	43.7	0	0	---	0.00	30.096 
04:45	48.2	48.2	48.2	85	43.9	0	0	---	0.00	30.100 
04:50	48.0	48.0	48.0	85	43.7	0	0	---	0.00	30.100 
04:55	47.9	47.9	47.9	85	43.6	0	0	---	0.00	30.100 
05:00	47.7	47.7	47.7	85	43.4	0	0	---	0.00	30.101 
05:05	47.6	47.6	47.6	85	43.3	0	0	---	0.00	30.101 
05:10	47.6	47.6	47.6	86	43.6	0	0	---	0.00	30.101 
05:15	47.3	47.3	47.3	86	43.3	0	0	---	0.00	30.106 
05:20	47.1	47.1	47.1	86	43.1	0	0	---	0.00	30.106 
05:25	47.0	47.0	47.0	86	43.0	0	0	---	0.00	30.106 
05:30	46.8	46.8	46.8	87	43.1	0	0	---	0.00	30.114 
05:35	46.7	46.7	46.7	87	43.0	0	0	---	0.00	30.114 
05:40	46.5	46.5	46.5	87	42.8	0	0	---	0.00	30.114 
05:45	46.5	46.5	46.5	87	42.8	0	0	---	0.00	30.119 
05:50	46.4	46.4	46.4	88	43.0	0	0	---	0.00	30.119 
05:55	46.2	46.2	46.2	88	42.8	0	0	---	0.00	30.119 
06:00	46.1	46.1	46.1	88	42.7	0	0	---	0.00	30.117 
06:05	46.1	46.1	46.1	88	42.7	0	0	---	0.00	30.117 
06:10	46.0	46.0	46.0	88	42.6	0	0	---	0.00	30.117 
06:15	45.8	45.8	45.8	89	42.7	0	0	---	0.00	30.122 
06:20	45.8	45.8	45.8	89	42.7	0	0	---	0.00	30.122 
06:25	45.7	45.7	45.7	89	42.6	0	0	---	0.00	30.122 
06:30	45.7	45.7	45.7	89	42.6	0	0	---	0.00	30.136 
06:35	45.7	45.7	45.7	90	42.9	0	0	---	0.00	30.136 
06:40	45.8	45.8	45.8	90	43.0	0	0	---	0.00	30.136 
06:45	46.0	46.0	46.0	90	43.2	0	0	---	0.00	30.138 
06:50	46.2	46.2	46.2	91	43.7	0	0	---	0.00	30.138 
06:55	46.4	46.4	46.4	91	43.9	0	0	---	0.00	30.138 
07:00	46.7	46.7	46.7	91	44.2	0	0	---	0.00	30.150 
07:05	46.8	46.8	46.8	91	44.3	0	0	---	0.00	30.150 
07:10	47.1	47.1	47.1	91	44.6	0	0	---	0.00	30.150 
07:15	47.6	47.6	47.6	92	45.4	0	0	---	0.00	30.154 
07:20	48.2	48.2	48.2	92	46.0	0	1	22	0.00	30.154 
07:25	49.1	49.1	49.1	92	46.9	0	1	---	0.00	30.154 
07:30	50.1	50.1	50.1	91	47.6	0	0	---	0.00	30.163 
07:35	51.3	51.3	51.3	89	48.2	0	0	---	0.00	30.163 
07:40	52.6	52.6	52.6	84	47.9	0	2	22	0.00	30.163 
07:45	53.9	53.9	53.9	79	47.5	0	2	22	0.00	30.159 
07:50	55.1	55.1	55.1	74	47.0	1	3	22	0.00	30.159 
07:55	55.9	55.9	55.9	72	47.0	1	3	22	0.00	30.159 
08:00	56.5	56.5	56.5	69	46.5	1	4	90	0.00	30.148 
08:05	57.0	57.0	57.0	69	46.9	0	3	90	0.00	30.148 
08:10	57.5	57.5	57.5	68	47.0	1	4	90	0.00	30.148 
08:15	58.1	58.1	58.1	65	46.4	2	5	90	0.00	30.158 
08:20	58.4	58.4	58.4	65	46.7	1	4	90	0.00	30.158 
08:25	58.9	58.9	58.9	65	47.2	1	3	90	0.00	30.158 
08:30	59.2	59.2	59.2	63	46.6	2	5	90	0.00	30.156 
08:35	59.5	59.5	59.5	64	47.3	1	4	90	0.00	30.156 
08:40	59.6	59.6	59.6	63	47.0	2	6	90	0.00	30.156 
08:45	59.8	59.8	59.8	64	47.6	2	5	90	0.00	30.147 
08:50	60.1	60.1	60.1	63	47.5	2	4	68	0.00	30.147 
08:55	60.1	60.1	60.1	62	47.0	2	4	68	0.00	30.147 
09:00	60.4	60.4	60.4	62	47.3	2	6	90	0.00	30.145 
09:05	60.9	60.9	60.9	63	48.2	1	5	90	0.00	30.145 
09:10	61.5	61.5	61.5	59	47.0	2	5	90	0.00	30.145 
09:15	61.8	61.8	61.8	59	47.3	2	4	68	0.00	30.149 
09:20	62.1	62.1	62.1	58	47.1	1	5	90	0.00	30.149 
09:25	62.3	62.3	62.3	56	46.4	2	4	90	0.00	30.149 
09:30	62.6	62.6	62.6	55	46.2	2	4	90	0.00	30.151 
09:35	62.9	62.9	62.9	55	46.5	2	5	90	0.00	30.151 
09:40	63.4	63.4	63.4	54	46.5	2	5	90	0.00	30.151 
09:45	63.9	63.9	63.9	53	46.4	1	6	90	0.00	30.151 
09:50	64.2	64.2	64.2	55	47.7	1	4	90	0.00	30.151 
09:55	64.5	64.5	64.5	53	47.0	2	5	90	0.00	30.151 
10:00	65.0	65.0	65.0	52	46.9	1	3	90	0.00	30.150 
10:05	65.3	65.3	65.3	47	44.5	2	5	90	0.00	30.150 
10:10	65.2	65.2	65.2	51	46.6	2	7	112	0.00	30.150 
10:15	65.0	65.0	65.0	48	44.8	3	5	112	0.00	30.149 
10:20	65.3	65.3	65.3	48	45.1	2	5	112	0.00	30.149 
10:25	65.5	65.5	65.5	47	44.7	2	5	90	0.00	30.149 
10:30	65.6	65.6	65.6	49	45.9	1	5	90	0.00	30.160 
10:35	66.0	66.0	66.0	46	44.6	2	6	112	0.00	30.160 
10:40	66.0	66.0	66.0	48	45.7	2	6	112	0.00	30.160 
10:45	66.0	66.0	66.0	46	44.6	2	6	90	0.00	30.160 
10:50	66.6	66.6	66.6	49	46.8	2	4	112	0.00	30.160 
10:55	67.1	67.1	67.1	47	46.2	1	4	112	0.00	30.160 
11:00	67.6	67.6	67.6	46	46.1	1	5	112	0.00	30.162 
11:05	68.1	68.1	68.1	45	45.9	1	3	90	0.00	30.162 
11:10	68.1	68.1	68.1	46	46.5	2	5	90	0.00	30.162 
11:15	67.4	67.4	67.4	46	45.9	2	5	90	0.00	30.163 
11:20	67.6	67.6	67.6	46	46.1	1	4	90	0.00	30.163 
11:25	67.6	67.6	67.6	48	47.2	1	5	90	0.00	30.163 
11:30	68.1	68.1	68.1	43	44.7	2	5	90	0.00	30.160 
11:35	68.3	68.3	68.3	44	45.5	2	3	90	0.00	30.160 
11:40	68.6	68.6	68.6	45	46.4	1	6	112	0.00	30.160 
11:45	68.8	68.8	68.8	44	46.0	2	4	112	0.00	30.154 
11:50	68.8	68.8	68.8	46	47.2	2	6	68	0.00	30.154 
11:55	68.9	68.9	68.9	44	46.1	2	6	68	0.00	30.154 
12:00	68.9	68.9	68.9	46	47.3	2	6	90	0.00	30.147 
12:05	68.9	68.9	68.9	43	45.5	3	9	112	0.00	30.147 
12:10	69.1	69.1	69.1	46	47.4	2	7	90	0.00	30.147 
12:15	69.4	69.4	69.4	46	47.7	1	5	90	0.00	30.156 
12:20	69.8	69.8	69.8	44	46.9	2	7	90	0.00	30.156 
12:25	69.6	69.6	69.6	42	45.5	2	6	90	0.00	30.156 
12:30	69.8	69.8	69.8	44	46.9	1	4	90	0.00	30.157 
12:35	69.9	69.9	69.9	42	45.8	1	5	90	0.00	30.157 
12:40	69.8	69.8	69.8	39	43.7	3	6	90	0.00	30.157 
12:45	69.6	69.6	69.6	41	44.8	2	5	90	0.00	30.158 
12:50	69.6	69.6	69.6	42	45.5	2	6	90	0.00	30.158 
12:55	69.4	69.4	69.4	40	44.0	2	7	90	0.00	30.158 
13:00	69.6	69.6	69.6	45	47.3	1	3	90	0.00	30.151 
13:05	69.8	69.8	69.8	43	46.3	2	7	90	0.00	30.151 
13:10	69.8	69.8	69.8	44	46.9	2	6	90	0.00	30.151 
13:15	69.9	69.9	69.9	42	45.8	1	5	90	0.00	30.145 
13:20	70.1	70.1	70.1	42	45.9	3	7	90	0.00	30.145 
13:25	70.1	70.1	70.1	41	45.3	2	6	90	0.00	30.145 
13:30	70.3	70.3	70.3	42	46.1	2	7	112	0.00	30.144 
13:35	70.6	70.6	70.6	42	46.4	2	6	90	0.00	30.144 
13:40	70.9	70.9	70.9	41	46.0	2	6	90	0.00	30.144 
13:45	71.1	71.1	71.1	43	47.5	2	4	90	0.00	30.134 
13:50	71.1	71.1	71.1	41	46.2	2	5	135	0.00	30.134 
13:55	70.8	70.8	70.8	47	49.6	2	6	90	0.00	30.134 
14:00	70.9	70.9	70.9	41	46.0	2	5	90	0.00	30.132 
14:05	71.1	71.1	71.1	42	46.8	1	4	112	0.00	30.132 
14:10	71.5	71.5	71.5	41	46.5	2	6	68	0.00	30.132 
14:15	71.3	71.3	71.3	42	47.0	1	2	90	0.00	30.128 
14:20	71.5	71.5	71.5	42	47.2	1	4	90	0.00	30.128 
14:25	71.8	71.8	71.8	45	49.3	1	6	90	0.00	30.128 
14:30	72.0	72.0	72.0	41	47.0	2	6	90	0.00	30.127 
14:35	72.0	72.0	72.0	38	45.0	2	5	112	0.00	30.127 
14:40	72.1	72.1	72.1	43	48.4	1	3	90	0.00	30.127 
14:45	72.3	72.3	72.3	40	46.6	2	9	90	0.00	30.125 
14:50	72.5	72.5	72.5	39	46.1	1	4	112	0.00	30.125 
14:55	72.5	72.5	72.5	40	46.8	3	9	112	0.00	30.125 
15:00	72.5	72.5	72.5	39	46.1	2	6	90	0.00	30.125 
15:05	72.3	72.3	72.3	40	46.6	2	5	90	0.00	30.125 
15:10	72.1	72.1	72.1	37	44.4	3	9	112	0.00	30.125 
15:15	71.8	71.8	71.8	37	44.1	3	7	112	0.00	30.125 
15:20	71.6	71.6	71.6	39	45.3	2	5	90	0.00	30.125 
15:25	71.8	71.8	71.8	43	48.1	1	6	90	0.00	30.125 
15:30	72.0	72.0	72.0	39	45.7	2	5	90	0.00	30.124 
15:35	72.0	72.0	72.0	36	43.6	3	7	90	0.00	30.124 
15:40	72.1	72.1	72.1	38	45.1	1	5	90	0.00	30.124 
15:45	72.7	72.7	72.7	38	45.6	1	4	112	0.00	30.123 
15:50	73.0	73.0	73.0	43	49.2	2	6	112	0.00	30.123 
15:55	73.2	73.2	73.2	40	47.4	1	3	112	0.00	30.123 
16:00	73.0	73.0	73.0	39	46.6	2	5	112	0.00	30.118 
16:05	73.0	73.0	73.0	38	45.9	2	5	90	0.00	30.118 
16:10	73.2	73.2	73.2	34	43.1	0	3	90	0.00	30.118 
16:15	73.7	73.7	73.7	38	46.5	1	5	90	0.00	30.115 
16:20	73.7	73.7	73.7	37	45.8	1	5	90	0.00	30.115 
16:25	73.7	73.7	73.7	36	45.1	1	4	90	0.00	30.115 
16:30	73.5	73.5	73.5	36	44.9	2	7	112	0.00	30.118 
16:35	73.3	73.3	73.3	34	43.2	1	4	112	0.00	30.118 
16:40	73.3	73.3	73.3	36	44.7	1	4	68	0.00	30.118 
16:45	73.3	73.3	73.3	38	46.1	1	6	90	0.00	30.121 
16:50	73.5	73.5	73.5	40	47.7	2	4	112	0.00	30.121 
16:55	73.5	73.5	73.5	36	44.9	2	6	112	0.00	30.121 
17:00	73.3	73.3	73.3	34	43.2	1	4	112	0.00	30.116 
17:05	73.0	73.0	73.0	37	45.2	2	5	112	0.00	30.116 
17:10	73.0	73.0	73.0	40	47.2	2	7	90	0.00	30.116 
17:15	72.7	72.7	72.7	37	44.9	2	5	90	0.00	30.116 
17:20	72.3	72.3	72.3	36	43.8	2	4	90	0.00	30.116 
17:25	72.5	72.5	72.5	40	46.8	1	4	90	0.00	30.116 
17:30	72.7	72.7	72.7	39	46.3	3	6	90	0.00	30.116 
17:35	72.7	72.7	72.7	41	47.6	1	4	90	0.00	30.116 
17:40	72.7	72.7	72.7	39	46.3	2	6	112	0.00	30.116 
17:45	72.8	72.8	72.8	39	46.4	1	3	112	0.00	30.113 
17:50	73.0	73.0	73.0	37	45.2	1	4	135	0.00	30.113 
17:55	73.0	73.0	73.0	37	45.2	2	6	112	0.00	30.113 
18:00	72.7	72.7	72.7	36	44.2	1	5	90	0.00	30.103 
18:05	72.3	72.3	72.3	37	44.6	2	5	90	0.00	30.103 
18:10	72.0	72.0	72.0	39	45.7	1	3	90	0.00	30.103 
18:15	71.6	71.6	71.6	37	43.9	2	5	90	0.00	30.103 
18:20	71.6	71.6	71.6	38	44.6	2	5	90	0.00	30.103 
18:25	71.5	71.5	71.5	39	45.2	2	5	90	0.00	30.103 
18:30	71.5	71.5	71.5	42	47.2	1	7	90	0.00	30.102 
18:35	71.5	71.5	71.5	39	45.2	3	6	90	0.00	30.102 
18:40	71.5	71.5	71.5	40	45.9	2	6	112	0.00	30.102 
18:45	71.3	71.3	71.3	38	44.4	2	9	90	0.00	30.101 
18:50	70.9	70.9	70.9	39	44.7	2	4	90	0.00	30.101 
18:55	70.8	70.8	70.8	39	44.6	2	4	90	0.00	30.101 
19:00	70.6	70.6	70.6	40	45.1	1	7	90	0.00	30.099 
19:05	70.6	70.6	70.6	40	45.1	2	5	90	0.00	30.099 
19:10	70.6	70.6	70.6	40	45.1	1	4	90	0.00	30.099 
19:15	70.8	70.8	70.8	39	44.6	2	5	90	0.00	30.089 
19:20	70.6	70.6	70.6	39	44.4	2	5	90	0.00	30.089 
19:25	70.4	70.4	70.4	40	44.9	2	4	90	0.00	30.089 
19:30	70.3	70.3	70.3	40	44.8	2	7	90	0.00	30.094 
19:35	70.1	70.1	70.1	42	45.9	1	4	90	0.00	30.094 
19:40	70.1	70.1	70.1	41	45.3	1	5	112	0.00	30.094 
19:45	69.9	69.9	69.9	42	45.8	1	4	112	0.00	30.095 
19:50	69.8	69.8	69.8	43	46.3	1	4	90	0.00	30.095 
19:55	69.6	69.6	69.6	44	46.7	1	5	90	0.00	30.095 
20:00	69.3	69.3	69.3	45	47.0	1	3	90	0.00	30.097 
20:05	69.1	69.1	69.1	46	47.4	1	5	90	0.00	30.097 
20:10	68.9	68.9	68.9	46	47.3	0	2	90	0.00	30.097 
20:15	68.6	68.6	68.6	47	47.6	0	2	90	0.00	30.102 
20:20	68.4	68.4	68.4	47	47.4	0	2	90	0.00	30.102 
20:25	68.3	68.3	68.3	48	47.8	0	1	90	0.00	30.102 
20:30	68.1	68.1	68.1	50	48.7	0	0	---	0.00	30.105 
20:35	67.9	67.9	67.9	51	49.1	0	1	90	0.00	30.105 
20:40	67.6	67.6	67.6	52	49.3	0	0	---	0.00	30.105 
20:45	67.3	67.3	67.3	51	48.5	0	2	90	0.00	30.105 
20:50	67.1	67.1	67.1	53	49.4	0	0	---	0.00	30.105 
20:55	66.9	66.9	66.9	54	49.7	0	0	---	0.00	30.105 
21:00	66.6	66.6	66.6	54	49.4	0	3	90	0.00	30.102 
21:05	66.4	66.4	66.4	55	49.7	0	2	90	0.00	30.102 
21:10	66.1	66.1	66.1	55	49.5	0	0	---	0.00	30.102 
21:15	65.8	65.8	65.8	55	49.2	0	1	90	0.00	30.103 
21:20	65.6	65.6	65.6	56	49.5	0	0	---	0.00	30.103 
21:25	65.5	65.5	65.5	57	49.9	0	1	90	0.00	30.103 
21:30	65.2	65.2	65.2	58	50.0	0	0	---	0.00	30.100 
21:35	64.8	64.8	64.8	58	49.7	0	0	---	0.00	30.100 
21:40	64.5	64.5	64.5	59	49.8	0	1	90	0.00	30.100 
21:45	64.3	64.3	64.3	59	49.7	0	2	90	0.00	30.104 
21:50	64.3	64.3	64.3	58	49.2	0	2	90	0.00	30.104 
21:55	64.5	64.5	64.5	55	48.0	1	5	90	0.00	30.104 
22:00	64.7	64.7	64.7	54	47.7	2	6	68	0.00	30.104 
22:05	64.8	64.8	64.8	52	46.8	2	4	90	0.00	30.104 
22:10	64.8	64.8	64.8	50	45.7	3	6	90	0.00	30.104 
22:15	64.7	64.7	64.7	49	45.1	2	5	90	0.00	30.103 
22:20	64.7	64.7	64.7	50	45.6	2	7	90	0.00	30.103 
22:25	64.3	64.3	64.3	50	45.3	2	7	90	0.00	30.103 
22:30	64.2	64.2	64.2	49	44.6	2	5	90	0.00	30.104 
22:35	64.0	64.0	64.0	50	45.0	1	3	90	0.00	30.104 
22:40	63.7	63.7	63.7	50	44.7	1	5	90	0.00	30.104 
22:45	63.5	63.5	63.5	50	44.5	2	5	90	0.00	30.105 
22:50	63.5	63.5	63.5	50	44.5	2	5	68	0.00	30.105 
22:55	63.4	63.4	63.4	51	45.0	1	3	90	0.00	30.105 
23:00	63.2	63.2	63.2	52	45.3	1	11	90	0.00	30.112 
23:05	62.9	62.9	62.9	52	45.0	1	2	90	0.00	30.112 
23:10	62.7	62.7	62.7	52	44.8	1	6	90	0.00	30.112 
23:15	62.6	62.6	62.6	53	45.2	1	3	90	0.00	30.113 
23:20	62.4	62.4	62.4	53	45.0	1	3	90	0.00	30.113 
23:25	62.3	62.3	62.3	54	45.4	1	3	90	0.00	30.113 
23:30	62.0	62.0	62.0	54	45.2	1	3	90	0.00	30.120 
23:35	61.8	61.8	61.8	54	45.0	1	5	90	0.00	30.120 
23:40	61.6	61.6	61.6	55	45.3	1	3	90	0.00	30.120 
23:45	61.5	61.5	61.5	55	45.2	1	4	90	0.00	30.119 
23:50	61.3	61.3	61.3	56	45.5	1	3	68	0.00	30.119 
23:55	61.2	61.2	61.2	56	45.4	1	2	68	0.00	30.119 

CoCoRaHS
IN-AL-39
A2 Web Hosting
Creative Commons License
GoDaddy
search engine by freefind advanced

loaded 2018-11-15 05:32:26 • last modified 2010-11-18 10:43:29
Privacy PolicyDisclaimer
• wx.awcolley.com is powered by PmWiki v.2002016 •
• all content (unless otherwise noted) © 2018 A W Colley